createdAt,value
2022-11-24T00:00:36.864Z,1.1
2022-11-24T00:10:38.141Z,1.8
2022-11-24T00:20:39.303Z,1.7
2022-11-24T00:30:40.581Z,1.9
2022-11-24T00:40:41.644Z,4.4
2022-11-24T00:50:42.726Z,1.9
2022-11-24T01:00:43.785Z,2.4
2022-11-24T01:10:44.778Z,5.4
2022-11-24T01:20:45.775Z,1.2
2022-11-24T01:30:46.850Z,1.2
2022-11-24T01:40:47.704Z,2.1
2022-11-24T01:50:48.592Z,2
2022-11-24T02:00:49.552Z,2.9
2022-11-24T02:10:50.446Z,2.9
2022-11-24T02:20:51.384Z,2.3
2022-11-24T02:30:52.296Z,2.1
2022-11-24T02:40:53.138Z,2.5
2022-11-24T02:50:53.991Z,3.1
2022-11-24T03:00:54.896Z,2.3
2022-11-24T03:10:55.828Z,2.6
2022-11-24T03:20:56.547Z,2.8
2022-11-24T03:30:57.475Z,2.5
2022-11-24T03:40:58.131Z,3.9
2022-11-24T03:50:58.915Z,3.2
2022-11-24T04:00:59.660Z,2.5
2022-11-24T04:11:00.314Z,2.2
2022-11-24T04:21:01.013Z,2.4
2022-11-24T04:31:01.834Z,4.1
2022-11-24T04:41:02.431Z,4.6
2022-11-24T04:51:03.047Z,5.1
2022-11-24T05:01:03.739Z,5.5
2022-11-24T05:11:04.348Z,5.9
2022-11-24T05:21:05.020Z,5.6
2022-11-24T05:31:05.815Z,6.4
2022-11-24T05:41:06.429Z,7.7
2022-11-24T05:51:09.356Z,8.1
2022-11-24T06:01:07.658Z,7.7
2022-11-24T06:11:08.308Z,7.6
2022-11-24T06:21:11.427Z,8
2022-11-24T06:31:09.722Z,9.7
2022-11-24T06:41:10.289Z,7.9
2022-11-24T06:51:10.907Z,9
2022-11-24T07:01:11.602Z,9.9
2022-11-24T07:11:12.072Z,7.9
2022-11-24T07:21:12.614Z,7.7
2022-11-24T07:31:13.248Z,7.9
2022-11-24T07:41:13.738Z,7.7
2022-11-24T07:51:14.336Z,8.5
2022-11-24T08:01:14.956Z,6.6
2022-11-24T08:11:15.579Z,7.9
2022-11-24T08:21:16.052Z,7.8
2022-11-24T08:31:16.525Z,7.3
2022-11-24T08:41:16.938Z,6.5
2022-11-24T08:51:17.418Z,8.3
2022-11-24T09:01:17.935Z,6.2
2022-11-24T09:11:18.373Z,6.9
2022-11-24T09:21:18.813Z,7.6
2022-11-24T09:31:19.353Z,7.3
2022-11-24T09:41:19.796Z,7.6
2022-11-24T09:51:20.265Z,7.1
2022-11-24T10:01:20.742Z,6.3
2022-11-24T10:11:21.095Z,6.7
2022-11-24T10:21:21.587Z,6.3
2022-11-24T10:31:22.169Z,7.2
2022-11-24T10:41:22.394Z,7.5
2022-11-24T10:51:22.871Z,5.9
2022-11-24T11:01:23.385Z,7.4
2022-11-24T11:11:23.736Z,8.1
2022-11-24T11:21:24.174Z,6.3
2022-11-24T11:31:24.732Z,7.7
2022-11-24T11:41:24.961Z,7
2022-11-24T11:51:25.547Z,6.2
2022-11-24T12:01:25.848Z,7.6
2022-11-24T12:11:26.426Z,9.7
2022-11-24T12:21:27.040Z,8.8
2022-11-24T12:31:27.418Z,7.5
2022-11-24T12:41:41.977Z,7.1
2022-11-24T12:51:28.557Z,6.6
2022-11-24T13:01:29.217Z,8.5
2022-11-24T13:11:29.650Z,5.6
2022-11-24T13:21:30.197Z,7.4
2022-11-24T13:31:30.718Z,6.2
2022-11-24T13:41:31.269Z,6
2022-11-24T13:51:31.649Z,5.8
2022-11-24T14:01:32.616Z,5.8
2022-11-24T14:11:32.972Z,5.8
2022-11-24T14:21:33.876Z,5.3
2022-11-24T14:31:34.359Z,6.6
2022-11-24T14:41:35.116Z,4.3
2022-11-24T14:51:35.905Z,4.7
2022-11-24T15:01:36.837Z,4.9
2022-11-24T15:11:37.345Z,3.8
2022-11-24T15:21:38.297Z,3
2022-11-24T15:31:39.270Z,3.6
2022-11-24T15:41:40.167Z,3.5
2022-11-24T15:51:41.128Z,2.7
2022-11-24T16:01:42.212Z,2.3
2022-11-24T16:11:43.257Z,2.4
2022-11-24T16:21:44.370Z,2.8
2022-11-24T16:31:45.643Z,1.9
2022-11-24T16:41:46.847Z,1.4
2022-11-24T16:51:48.030Z,1.9
2022-11-24T17:01:49.420Z,2
2022-11-24T17:11:50.609Z,1.4
2022-11-24T17:21:51.875Z,1.3
2022-11-24T17:31:54.581Z,1.3
2022-11-24T17:38:38.905Z,1.3
2022-11-24T17:39:24.692Z,1.3
2022-11-24T17:41:54.708Z,2
2022-11-24T17:51:56.098Z,1.1
2022-11-24T18:01:57.503Z,1.5
2022-11-24T18:12:07.964Z,1.4
2022-11-24T18:12:33.592Z,1.4
2022-11-24T18:22:00.613Z,2
2022-11-24T18:32:02.521Z,1.6
2022-11-24T18:42:04.241Z,1.2
2022-11-24T18:52:06.210Z,2.3
2022-11-24T19:02:08.105Z,2
2022-11-24T19:12:10.489Z,1.4
2022-11-24T19:22:12.387Z,1.3
2022-11-24T19:25:49.790Z,1.3
2022-11-24T19:32:14.860Z,2.3
2022-11-24T19:42:17.227Z,1
2022-11-24T19:52:19.790Z,0.9
2022-11-24T20:02:22.395Z,1.3
2022-11-24T20:12:24.982Z,1.4
2022-11-24T20:22:27.600Z,2.1
2022-11-24T20:32:30.195Z,1.2
2022-11-24T20:42:32.905Z,1.8
2022-11-24T20:52:35.813Z,2.1
2022-11-24T20:56:53.258Z,2.1
2022-11-24T21:02:38.383Z,1.4
2022-11-24T21:12:49.694Z,3.6
2022-11-24T21:22:43.618Z,2.2
2022-11-24T21:24:49.765Z,2.2
2022-11-24T21:32:46.083Z,1.6
2022-11-24T21:42:48.260Z,1.7
2022-11-24T21:52:50.348Z,1
2022-11-24T22:02:52.449Z,1.2
2022-11-24T22:08:53.014Z,1.2
2022-11-24T22:12:54.214Z,1.2
2022-11-24T22:22:56.049Z,1.1
2022-11-24T22:32:57.791Z,1.3
2022-11-24T22:42:59.518Z,2.2
2022-11-24T22:53:01.313Z,1.5
2022-11-24T23:03:02.871Z,2.4
2022-11-24T23:13:15.861Z,2.7
2022-11-24T23:23:06.015Z,3.8
2022-11-24T23:33:07.520Z,2.8
2022-11-24T23:43:08.948Z,2
2022-11-24T23:53:10.367Z,2.6
